createdAt,value
2023-03-29T06:40:11.844Z,1.90
2023-03-29T06:40:22.896Z,2.40
2023-03-29T06:40:33.039Z,2.30
2023-03-29T06:40:43.037Z,2.40
2023-03-29T06:40:53.253Z,2.30
2023-03-29T06:41:03.625Z,2.40
2023-03-29T06:41:13.405Z,2.50
2023-03-29T06:41:23.699Z,2.50
2023-03-29T06:41:33.780Z,2.70
2023-03-29T06:41:43.892Z,2.80
2023-03-29T06:41:54.035Z,3.10
2023-03-29T06:42:16.869Z,3.10
2023-03-29T06:42:26.514Z,3.10
2023-03-29T06:42:32.441Z,2.90
2023-03-29T06:42:42.573Z,2.80
2023-03-29T06:42:52.578Z,2.90
2023-03-29T06:43:02.724Z,2.90
2023-03-29T06:43:12.844Z,2.90
2023-03-29T06:43:33.182Z,3.40
2023-03-29T06:43:43.117Z,3.50
2023-03-29T06:43:53.236Z,3.50
2023-03-29T06:44:03.350Z,3.60
2023-03-29T06:44:13.470Z,3.90
2023-03-29T06:44:23.628Z,3.80
2023-03-29T06:44:33.818Z,3.60
2023-03-29T06:44:43.922Z,3.50
2023-03-29T06:44:54.021Z,3.50
2023-03-29T06:45:04.065Z,3.50
2023-03-29T06:45:14.163Z,3.40
2023-03-29T06:45:25.296Z,3.60
2023-03-29T06:45:34.401Z,3.40
2023-03-29T06:45:44.573Z,3.70
2023-03-29T06:45:54.748Z,3.70
2023-03-29T06:46:04.895Z,3.70
2023-03-29T06:46:15.003Z,3.50
2023-03-29T06:46:25.082Z,3.30
2023-03-29T06:46:35.161Z,3.50
2023-03-29T06:46:45.316Z,3.30
2023-03-29T06:46:55.494Z,35.00
2023-03-29T06:47:05.542Z,27.70
2023-03-29T06:47:15.592Z,16.50
2023-03-29T06:47:25.725Z,12.30
2023-03-29T06:47:35.856Z,10.20
2023-03-29T06:47:46.199Z,14.80
2023-03-29T06:47:56.189Z,12.00
2023-03-29T06:48:06.848Z,7.60
2023-03-29T06:48:16.405Z,5.70
2023-03-29T06:48:26.736Z,5.00
2023-03-29T06:48:36.598Z,4.40
2023-03-29T06:48:46.841Z,2.00
2023-03-29T06:48:56.879Z,1.90
2023-03-29T06:49:07.063Z,2.10
2023-03-29T06:49:17.262Z,2.30
2023-03-29T06:49:27.460Z,2.40
2023-03-29T06:49:37.440Z,2.50
2023-03-29T06:49:47.602Z,2.70
2023-03-29T06:49:57.667Z,2.90
2023-03-29T06:50:07.971Z,2.80
2023-03-29T06:50:18.075Z,2.80
2023-03-29T06:50:28.028Z,3.00
2023-03-29T06:50:38.201Z,3.00
2023-03-29T06:50:48.312Z,3.00
2023-03-29T06:50:58.512Z,3.00
2023-03-29T06:51:08.583Z,3.30
2023-03-29T06:51:20.075Z,3.20
2023-03-29T06:51:28.932Z,3.10
2023-03-29T06:51:38.984Z,3.10
2023-03-29T06:51:49.150Z,3.20
2023-03-29T06:51:59.251Z,3.10
2023-03-29T06:52:09.437Z,2.80
2023-03-29T06:52:19.502Z,2.80
2023-03-29T06:52:29.695Z,2.80
2023-03-29T06:52:39.606Z,2.90
2023-03-29T06:52:49.863Z,2.90
2023-03-29T06:52:59.980Z,3.20
2023-03-29T06:53:10.057Z,3.20
2023-03-29T06:53:20.840Z,3.50
2023-03-29T06:53:30.300Z,3.40
2023-03-29T06:53:40.484Z,3.10
2023-03-29T06:53:50.729Z,3.10
2023-03-29T06:54:00.965Z,2.80
2023-03-29T06:54:10.927Z,2.80
2023-03-29T06:54:21.028Z,2.50
2023-03-29T06:54:31.249Z,2.40
2023-03-29T06:54:41.215Z,2.50
2023-03-29T06:54:51.532Z,2.50
2023-03-29T06:55:01.595Z,2.80
2023-03-29T06:55:11.755Z,2.90
2023-03-29T06:55:22.364Z,2.90
2023-03-29T06:55:32.084Z,3.00
2023-03-29T06:55:42.079Z,2.90
2023-03-29T06:55:52.265Z,2.90
2023-03-29T06:56:02.323Z,2.80
2023-03-29T06:56:12.438Z,2.90
2023-03-29T06:56:22.554Z,4.20
2023-03-29T06:56:32.787Z,4.40
2023-03-29T06:56:42.798Z,4.40
2023-03-29T06:56:53.037Z,45.10
2023-03-29T06:57:03.007Z,27.30
2023-03-29T06:57:13.163Z,18.90
2023-03-29T06:57:23.372Z,14.70
2023-03-29T06:57:33.787Z,12.00
2023-03-29T06:57:43.570Z,10.50
2023-03-29T06:57:53.721Z,2.60
2023-03-29T06:58:03.691Z,2.50
2023-03-29T06:58:13.912Z,2.30
2023-03-29T06:58:23.986Z,2.30
2023-03-29T06:58:34.318Z,2.30
2023-03-29T06:58:44.254Z,2.10
2023-03-29T06:58:54.327Z,13.60
2023-03-29T06:59:04.502Z,43.30
2023-03-29T06:59:14.652Z,19.10
2023-03-29T06:59:24.719Z,13.60
2023-03-29T06:59:34.858Z,11.00
2023-03-29T06:59:44.922Z,103.50
2023-03-29T06:59:55.103Z,69.60
2023-03-29T07:00:05.129Z,40.80
2023-03-29T07:00:15.441Z,29.20
2023-03-29T07:00:25.372Z,23.50
2023-03-29T07:00:35.620Z,19.60
2023-03-29T07:00:45.630Z,3.10
2023-03-29T07:00:55.686Z,3.20
2023-03-29T07:01:05.995Z,128.80
2023-03-29T07:01:15.939Z,237.10
2023-03-29T07:01:26.071Z,41.30
2023-03-29T07:01:36.205Z,85.40
2023-03-29T07:01:46.354Z,100.60
2023-03-29T07:01:56.489Z,235.00
2023-03-29T07:02:06.610Z,163.90
2023-03-29T07:02:16.824Z,45.70
2023-03-29T07:02:26.744Z,54.00
2023-03-29T07:02:36.900Z,18.30
2023-03-29T07:02:47.013Z,13.00
2023-03-29T07:02:57.072Z,10.10
2023-03-29T07:03:07.204Z,8.60
2023-03-29T07:03:17.299Z,7.50
2023-03-29T07:03:27.560Z,3.80
2023-03-29T07:03:37.752Z,3.60
2023-03-29T07:03:47.729Z,3.40
2023-03-29T07:03:57.834Z,3.60
2023-03-29T07:04:08.018Z,3.60
2023-03-29T07:04:18.160Z,3.60
2023-03-29T07:04:28.255Z,3.70
2023-03-29T07:04:38.422Z,3.50
2023-03-29T07:04:48.523Z,3.30
2023-03-29T07:04:58.626Z,3.10
2023-03-29T07:05:08.733Z,3.30
2023-03-29T07:05:18.858Z,3.30
2023-03-29T07:05:28.984Z,3.20
2023-03-29T07:05:39.280Z,3.10
2023-03-29T07:05:49.232Z,3.30
2023-03-29T07:05:59.362Z,3.30
2023-03-29T07:06:09.437Z,2.90
2023-03-29T07:06:19.772Z,2.90
2023-03-29T07:06:29.753Z,2.80
2023-03-29T07:06:39.830Z,2.80
2023-03-29T07:06:49.863Z,2.70
2023-03-29T07:07:00.119Z,2.60
2023-03-29T07:07:10.266Z,2.50
2023-03-29T07:07:20.504Z,2.60
2023-03-29T07:07:30.518Z,2.60
2023-03-29T07:07:40.545Z,2.50
2023-03-29T07:07:50.674Z,2.70
2023-03-29T07:08:00.843Z,2.70
2023-03-29T07:08:11.145Z,2.80
2023-03-29T07:08:21.216Z,2.80
2023-03-29T07:08:31.196Z,2.80
2023-03-29T07:08:41.364Z,2.90
2023-03-29T07:08:51.461Z,3.20
2023-03-29T07:09:01.611Z,3.10
2023-03-29T07:09:11.712Z,3.10
2023-03-29T07:09:21.963Z,4.00
2023-03-29T07:09:32.071Z,4.10
2023-03-29T07:09:42.153Z,4.00
2023-03-29T07:09:52.095Z,4.10
2023-03-29T07:10:02.210Z,4.10
2023-03-29T07:10:12.383Z,4.00
2023-03-29T07:10:22.520Z,3.10
2023-03-29T07:10:32.788Z,3.40
2023-03-29T07:10:42.709Z,3.60
2023-03-29T07:10:52.756Z,3.30
2023-03-29T07:11:03.107Z,3.40
2023-03-29T07:11:13.053Z,3.50
2023-03-29T07:11:23.209Z,3.50
2023-03-29T07:11:33.444Z,3.10
2023-03-29T07:11:43.426Z,2.80
2023-03-29T07:11:53.586Z,3.20
2023-03-29T07:12:03.648Z,3.40
2023-03-29T07:12:13.990Z,3.60
2023-03-29T07:12:24.047Z,3.70
2023-03-29T07:12:34.163Z,3.80
2023-03-29T07:12:44.287Z,3.70
2023-03-29T07:12:54.335Z,3.10
2023-03-29T07:13:04.441Z,3.00
2023-03-29T07:13:14.560Z,29.60
2023-03-29T07:13:24.820Z,17.80
2023-03-29T07:13:34.793Z,12.80
2023-03-29T07:13:44.925Z,10.10
2023-03-29T07:13:55.130Z,8.60
2023-03-29T07:14:05.233Z,7.80
2023-03-29T07:14:15.286Z,3.10
2023-03-29T07:14:25.358Z,3.20
2023-03-29T07:14:35.520Z,3.20
2023-03-29T07:14:46.578Z,3.30
2023-03-29T07:14:55.826Z,3.40
2023-03-29T07:15:05.838Z,3.40
2023-03-29T07:15:16.052Z,3.20
2023-03-29T07:15:26.845Z,3.20
2023-03-29T07:15:36.998Z,3.20
2023-03-29T07:15:46.347Z,3.10
2023-03-29T07:15:56.404Z,3.40
2023-03-29T07:16:06.498Z,3.30
2023-03-29T07:16:16.682Z,3.30
2023-03-29T07:16:26.886Z,3.60
2023-03-29T07:16:37.055Z,4.20
2023-03-29T07:16:47.087Z,4.30
2023-03-29T07:16:57.146Z,3.90
2023-03-29T07:17:07.262Z,3.70
2023-03-29T07:17:17.436Z,3.70
2023-03-29T07:17:27.452Z,3.60
2023-03-29T07:17:37.638Z,3.00
2023-03-29T07:17:47.776Z,2.60
2023-03-29T07:17:57.918Z,2.60
2023-03-29T07:18:07.991Z,2.80
2023-03-29T07:18:18.313Z,3.10
2023-03-29T07:18:28.245Z,2.90
2023-03-29T07:18:38.427Z,2.90
2023-03-29T07:18:48.424Z,3.10
2023-03-29T07:18:58.694Z,3.30
2023-03-29T07:19:08.753Z,2.90
2023-03-29T07:19:18.949Z,2.50
2023-03-29T07:19:29.045Z,2.70
2023-03-29T07:19:39.154Z,2.70
2023-03-29T07:19:49.235Z,2.70
2023-03-29T07:19:59.461Z,2.70
2023-03-29T07:20:09.628Z,2.80
2023-03-29T07:20:19.657Z,2.70
2023-03-29T07:20:29.828Z,2.60
2023-03-29T07:20:39.985Z,2.50
2023-03-29T07:20:50.063Z,2.20
2023-03-29T07:21:00.561Z,2.40
2023-03-29T07:21:10.443Z,2.50
2023-03-29T07:21:20.530Z,2.60
2023-03-29T07:21:30.655Z,2.90
2023-03-29T07:21:40.783Z,3.00
2023-03-29T07:21:50.901Z,3.20
2023-03-29T07:22:01.131Z,3.00
2023-03-29T07:22:11.235Z,2.80
2023-03-29T07:22:21.224Z,3.00
2023-03-29T07:22:31.302Z,2.70
2023-03-29T07:22:41.499Z,2.50
2023-03-29T07:22:51.516Z,2.40
2023-03-29T07:23:01.621Z,2.50
2023-03-29T07:23:11.753Z,2.50
2023-03-29T07:23:21.827Z,2.20
2023-03-29T07:23:31.915Z,2.40
2023-03-29T07:23:42.057Z,2.40
2023-03-29T07:23:52.113Z,2.40
2023-03-29T07:24:02.265Z,2.40
2023-03-29T07:24:12.402Z,2.60
2023-03-29T07:24:22.525Z,2.70
2023-03-29T07:24:32.551Z,2.70
2023-03-29T07:24:42.710Z,2.70
2023-03-29T07:24:52.965Z,2.90
2023-03-29T07:25:02.972Z,2.80
2023-03-29T07:25:13.053Z,2.40
2023-03-29T07:25:23.230Z,2.20
2023-03-29T07:25:33.368Z,2.10
2023-03-29T07:25:43.523Z,2.10
2023-03-29T07:25:53.637Z,1.80
2023-03-29T07:26:03.769Z,2.00
2023-03-29T07:26:13.880Z,2.60
2023-03-29T07:26:34.466Z,3.00
2023-03-29T07:26:46.304Z,3.30
2023-03-29T07:27:04.029Z,3.70
2023-03-29T07:27:10.145Z,3.70
2023-03-29T07:27:18.713Z,3.80
2023-03-29T07:27:28.826Z,3.40
2023-03-29T07:27:39.025Z,3.60
2023-03-29T07:27:49.150Z,3.40
2023-03-29T07:27:59.364Z,3.20
2023-03-29T07:28:10.692Z,3.60
2023-03-29T07:28:19.677Z,3.10
2023-03-29T07:28:29.625Z,3.20
2023-03-29T07:28:39.790Z,3.20
2023-03-29T07:28:49.862Z,3.40
2023-03-29T07:29:00.052Z,3.50
2023-03-29T07:29:20.320Z,3.20
2023-03-29T07:29:30.396Z,3.50
2023-03-29T07:29:40.525Z,3.50
2023-03-29T07:29:50.761Z,3.50
2023-03-29T07:30:00.726Z,3.10
2023-03-29T07:30:10.992Z,2.90
2023-03-29T07:30:21.088Z,2.80
2023-03-29T07:30:32.369Z,2.60
2023-03-29T07:30:41.344Z,2.70
2023-03-29T07:30:51.464Z,2.60
2023-03-29T07:31:01.843Z,3.00
2023-03-29T07:31:11.643Z,3.00
2023-03-29T07:31:21.782Z,3.00
2023-03-29T07:31:31.884Z,2.90
2023-03-29T07:31:41.915Z,2.70
2023-03-29T07:31:52.127Z,2.80
2023-03-29T07:32:02.211Z,2.50
2023-03-29T07:32:12.269Z,2.90
2023-03-29T07:32:22.406Z,2.80
2023-03-29T07:32:32.493Z,2.70
2023-03-29T07:32:42.822Z,2.50
2023-03-29T07:32:52.989Z,2.40
2023-03-29T07:33:02.940Z,2.40
2023-03-29T07:33:13.095Z,2.00
2023-03-29T07:33:23.256Z,2.10
2023-03-29T07:33:33.286Z,2.20
2023-03-29T07:33:43.437Z,2.30
2023-03-29T07:33:53.560Z,2.40
2023-03-29T07:34:03.674Z,2.50
2023-03-29T07:34:13.800Z,2.70
2023-03-29T07:34:23.953Z,2.80
2023-03-29T07:34:34.042Z,3.00
2023-03-29T07:34:44.383Z,3.10
2023-03-29T07:34:54.403Z,3.00
2023-03-29T07:35:04.446Z,3.10
2023-03-29T07:35:14.556Z,3.30
2023-03-29T07:35:24.778Z,3.20
2023-03-29T07:35:35.001Z,3.00
